sensor_id;sensor_type;location;lat;lon;timestamp;pressure;altitude;pressure_sealevel;temperature;humidity
40948;BME280;49382;-25.924;28.194;2023-05-23T00:01:56;85374.53;;;15.12;40.03
40948;BME280;49382;-25.924;28.194;2023-05-23T00:04:22;85371.59;;;14.86;40.34
40948;BME280;49382;-25.924;28.194;2023-05-23T00:06:47;85373.02;;;15.78;38.79
40948;BME280;49382;-25.924;28.194;2023-05-23T00:09:13;85373.56;;;16.05;38.12
40948;BME280;49382;-25.924;28.194;2023-05-23T00:11:38;85373.99;;;16.10;36.09
40948;BME280;49382;-25.924;28.194;2023-05-23T00:14:03;85369.24;;;15.21;37.45
40948;BME280;49382;-25.924;28.194;2023-05-23T00:16:29;85363.43;;;16.53;36.78
40948;BME280;49382;-25.924;28.194;2023-05-23T00:18:54;85369.00;;;16.53;37.79
40948;BME280;49382;-25.924;28.194;2023-05-23T00:21:19;85371.64;;;16.37;37.86
40948;BME280;49382;-25.924;28.194;2023-05-23T00:23:44;85369.53;;;15.89;38.06
40948;BME280;49382;-25.924;28.194;2023-05-23T00:26:09;85364.50;;;14.63;40.83
40948;BME280;49382;-25.924;28.194;2023-05-23T00:28:35;85365.98;;;14.94;40.88
40948;BME280;49382;-25.924;28.194;2023-05-23T00:31:00;85362.66;;;15.12;41.17
40948;BME280;49382;-25.924;28.194;2023-05-23T00:33:25;85361.83;;;14.93;41.68
40948;BME280;49382;-25.924;28.194;2023-05-23T00:35:50;85360.63;;;15.35;40.87
40948;BME280;49382;-25.924;28.194;2023-05-23T00:38:16;85367.36;;;15.69;40.67
40948;BME280;49382;-25.924;28.194;2023-05-23T00:40:40;85364.81;;;15.53;40.98
40948;BME280;49382;-25.924;28.194;2023-05-23T00:43:05;85365.91;;;15.65;40.51
40948;BME280;49382;-25.924;28.194;2023-05-23T00:45:30;85365.19;;;15.34;40.73
40948;BME280;49382;-25.924;28.194;2023-05-23T00:47:56;85367.72;;;14.99;41.70
40948;BME280;49382;-25.924;28.194;2023-05-23T00:50:21;85371.53;;;14.70;42.29
40948;BME280;49382;-25.924;28.194;2023-05-23T00:52:47;85374.51;;;15.28;41.63
40948;BME280;49382;-25.924;28.194;2023-05-23T00:55:11;85378.47;;;15.13;42.20
40948;BME280;49382;-25.924;28.194;2023-05-23T00:57:36;85383.67;;;15.20;42.38
40948;BME280;49382;-25.924;28.194;2023-05-23T01:00:01;85386.83;;;14.93;42.76
40948;BME280;49382;-25.924;28.194;2023-05-23T01:02:27;85385.34;;;14.95;43.40
40948;BME280;49382;-25.924;28.194;2023-05-23T01:04:52;85383.68;;;14.82;43.53
40948;BME280;49382;-25.924;28.194;2023-05-23T01:07:17;85383.33;;;14.65;44.34
40948;BME280;49382;-25.924;28.194;2023-05-23T01:09:42;85379.30;;;15.08;43.69
40948;BME280;49382;-25.924;28.194;2023-05-23T01:12:18;85379.31;;;14.93;43.55
40948;BME280;49382;-25.924;28.194;2023-05-23T01:14:37;85380.73;;;14.97;43.27
40948;BME280;49382;-25.924;28.194;2023-05-23T01:17:02;85371.70;;;14.54;43.82
40948;BME280;49382;-25.924;28.194;2023-05-23T01:21:52;85379.48;;;14.80;44.74
40948;BME280;49382;-25.924;28.194;2023-05-23T01:24:24;85381.91;;;14.60;44.81
40948;BME280;49382;-25.924;28.194;2023-05-23T01:29:08;85376.37;;;14.72;44.76
40948;BME280;49382;-25.924;28.194;2023-05-23T01:31:31;85373.56;;;15.08;44.56
40948;BME280;49382;-25.924;28.194;2023-05-23T01:33:55;85374.15;;;14.40;45.51
40948;BME280;49382;-25.924;28.194;2023-05-23T01:36:20;85367.78;;;14.26;46.00
40948;BME280;49382;-25.924;28.194;2023-05-23T01:38:44;85367.56;;;14.09;46.23
40948;BME280;49382;-25.924;28.194;2023-05-23T01:41:10;85373.35;;;13.14;48.04
40948;BME280;49382;-25.924;28.194;2023-05-23T01:43:35;85367.19;;;13.94;46.61
40948;BME280;49382;-25.924;28.194;2023-05-23T01:46:00;85368.00;;;14.54;45.62
40948;BME280;49382;-25.924;28.194;2023-05-23T01:48:27;85371.72;;;14.78;45.02
40948;BME280;49382;-25.924;28.194;2023-05-23T01:50:51;85373.62;;;14.53;45.48
40948;BME280;49382;-25.924;28.194;2023-05-23T01:53:18;85376.27;;;14.40;45.32
40948;BME280;49382;-25.924;28.194;2023-05-23T01:55:42;85377.24;;;14.12;46.13
40948;BME280;49382;-25.924;28.194;2023-05-23T01:58:07;85381.62;;;14.21;46.59
40948;BME280;49382;-25.924;28.194;2023-05-23T02:00:32;85380.81;;;13.74;47.09
40948;BME280;49382;-25.924;28.194;2023-05-23T02:02:57;85382.95;;;13.92;46.86
40948;BME280;49382;-25.924;28.194;2023-05-23T02:05:22;85380.88;;;13.79;47.11
40948;BME280;49382;-25.924;28.194;2023-05-23T02:07:47;85383.79;;;14.75;45.75
40948;BME280;49382;-25.924;28.194;2023-05-23T02:10:13;85386.77;;;14.25;46.60
40948;BME280;49382;-25.924;28.194;2023-05-23T02:12:38;85387.74;;;13.78;47.65
40948;BME280;49382;-25.924;28.194;2023-05-23T02:15:04;85391.34;;;12.85;49.96
40948;BME280;49382;-25.924;28.194;2023-05-23T02:17:29;85394.55;;;13.57;49.01
40948;BME280;49382;-25.924;28.194;2023-05-23T02:19:54;85397.28;;;12.88;49.86
40948;BME280;49382;-25.924;28.194;2023-05-23T02:22:23;85390.88;;;14.78;46.58
40948;BME280;49382;-25.924;28.194;2023-05-23T02:24:44;85389.79;;;13.69;48.37
40948;BME280;49382;-25.924;28.194;2023-05-23T02:27:10;85397.54;;;13.07;49.63
40948;BME280;49382;-25.924;28.194;2023-05-23T02:29:35;85396.67;;;12.86;51.41
40948;BME280;49382;-25.924;28.194;2023-05-23T02:32:00;85396.25;;;13.05;51.11
40948;BME280;49382;-25.924;28.194;2023-05-23T02:34:25;85387.22;;;12.32;52.72
40948;BME280;49382;-25.924;28.194;2023-05-23T02:36:50;85392.03;;;12.92;51.48
40948;BME280;49382;-25.924;28.194;2023-05-23T02:39:16;85389.89;;;14.17;47.96
40948;BME280;49382;-25.924;28.194;2023-05-23T02:41:41;85395.19;;;13.56;49.16
40948;BME280;49382;-25.924;28.194;2023-05-23T02:44:07;85398.29;;;13.60;49.37
40948;BME280;49382;-25.924;28.194;2023-05-23T02:46:32;85393.28;;;13.89;48.38
40948;BME280;49382;-25.924;28.194;2023-05-23T02:48:57;85391.57;;;14.29;48.51
40948;BME280;49382;-25.924;28.194;2023-05-23T02:51:22;85395.49;;;13.42;48.99
40948;BME280;49382;-25.924;28.194;2023-05-23T02:53:47;85395.07;;;14.24;48.31
40948;BME280;49382;-25.924;28.194;2023-05-23T02:56:12;85402.37;;;13.43;48.99
40948;BME280;49382;-25.924;28.194;2023-05-23T02:58:37;85399.98;;;14.90;46.43
40948;BME280;49382;-25.924;28.194;2023-05-23T03:01:03;85396.47;;;14.89;46.45
40948;BME280;49382;-25.924;28.194;2023-05-23T03:03:27;85394.34;;;15.64;44.32
40948;BME280;49382;-25.924;28.194;2023-05-23T03:05:53;85396.51;;;14.58;46.40
40948;BME280;49382;-25.924;28.194;2023-05-23T03:08:19;85395.93;;;15.26;44.95
40948;BME280;49382;-25.924;28.194;2023-05-23T03:10:44;85400.45;;;15.68;44.62
40948;BME280;49382;-25.924;28.194;2023-05-23T03:13:10;85405.34;;;15.70;44.68
40948;BME280;49382;-25.924;28.194;2023-05-23T03:15:35;85413.70;;;15.28;45.16
40948;BME280;49382;-25.924;28.194;2023-05-23T03:18:00;85416.16;;;14.74;46.34
40948;BME280;49382;-25.924;28.194;2023-05-23T03:20:25;85410.50;;;15.11;44.98
40948;BME280;49382;-25.924;28.194;2023-05-23T03:22:51;85409.34;;;15.08;45.11
40948;BME280;49382;-25.924;28.194;2023-05-23T03:25:16;85416.22;;;14.35;47.03
40948;BME280;49382;-25.924;28.194;2023-05-23T03:27:41;85419.45;;;15.07;45.09
40948;BME280;49382;-25.924;28.194;2023-05-23T03:30:07;85418.13;;;15.10;45.11
40948;BME280;49382;-25.924;28.194;2023-05-23T03:32:31;85422.07;;;14.03;47.46
40948;BME280;49382;-25.924;28.194;2023-05-23T03:34:57;85425.33;;;14.81;46.38
40948;BME280;49382;-25.924;28.194;2023-05-23T03:37:22;85429.53;;;13.38;48.69
40948;BME280;49382;-25.924;28.194;2023-05-23T03:39:47;85427.64;;;14.37;47.46
40948;BME280;49382;-25.924;28.194;2023-05-23T03:42:13;85427.78;;;14.14;46.82
40948;BME280;49382;-25.924;28.194;2023-05-23T03:44:38;85426.96;;;14.22;47.29
40948;BME280;49382;-25.924;28.194;2023-05-23T03:47:04;85425.83;;;14.71;47.12
40948;BME280;49382;-25.924;28.194;2023-05-23T03:49:30;85427.25;;;14.95;46.04
40948;BME280;49382;-25.924;28.194;2023-05-23T03:51:55;85428.41;;;15.01;45.56
40948;BME280;49382;-25.924;28.194;2023-05-23T03:54:20;85426.34;;;15.11;45.31
40948;BME280;49382;-25.924;28.194;2023-05-23T03:56:45;85427.30;;;15.15;46.00
40948;BME280;49382;-25.924;28.194;2023-05-23T03:59:11;85428.41;;;14.30;47.16
40948;BME280;49382;-25.924;28.194;2023-05-23T04:01:35;85435.46;;;15.21;45.64
40948;BME280;49382;-25.924;28.194;2023-05-23T04:04:00;85437.38;;;14.86;46.38
40948;BME280;49382;-25.924;28.194;2023-05-23T04:06:26;85439.23;;;15.16;46.21
40948;BME280;49382;-25.924;28.194;2023-05-23T04:08:51;85437.83;;;15.32;45.71
40948;BME280;49382;-25.924;28.194;2023-05-23T04:11:17;85437.34;;;14.43;46.38
40948;BME280;49382;-25.924;28.194;2023-05-23T04:13:42;85433.68;;;14.64;46.51
40948;BME280;49382;-25.924;28.194;2023-05-23T04:16:09;85437.17;;;14.95;45.60
40948;BME280;49382;-25.924;28.194;2023-05-23T04:18:33;85436.46;;;14.93;46.32
40948;BME280;49382;-25.924;28.194;2023-05-23T04:20:58;85433.86;;;14.74;46.37
40948;BME280;49382;-25.924;28.194;2023-05-23T04:23:23;85438.24;;;14.78;46.67
40948;BME280;49382;-25.924;28.194;2023-05-23T04:25:49;85442.19;;;15.46;45.57
40948;BME280;49382;-25.924;28.194;2023-05-23T04:28:14;85446.31;;;15.76;44.20
40948;BME280;49382;-25.924;28.194;2023-05-23T04:30:39;85449.19;;;15.32;45.37
40948;BME280;49382;-25.924;28.194;2023-05-23T04:33:05;85451.09;;;14.12;47.50
40948;BME280;49382;-25.924;28.194;2023-05-23T04:35:30;85453.35;;;14.51;46.72
40948;BME280;49382;-25.924;28.194;2023-05-23T04:37:56;85455.66;;;15.12;45.89
40948;BME280;49382;-25.924;28.194;2023-05-23T04:40:21;85456.86;;;14.86;46.58
40948;BME280;49382;-25.924;28.194;2023-05-23T04:42:46;85461.85;;;14.83;46.06
40948;BME280;49382;-25.924;28.194;2023-05-23T04:45:12;85463.80;;;14.83;46.73
40948;BME280;49382;-25.924;28.194;2023-05-23T04:47:37;85462.95;;;14.62;46.86
40948;BME280;49382;-25.924;28.194;2023-05-23T04:50:02;85464.66;;;13.95;48.17
40948;BME280;49382;-25.924;28.194;2023-05-23T04:52:27;85459.75;;;14.60;46.81
40948;BME280;49382;-25.924;28.194;2023-05-23T04:54:52;85461.27;;;14.75;46.47
40948;BME280;49382;-25.924;28.194;2023-05-23T04:57:17;85463.65;;;15.56;45.18
40948;BME280;49382;-25.924;28.194;2023-05-23T04:59:43;85465.57;;;15.14;46.02
40948;BME280;49382;-25.924;28.194;2023-05-23T05:02:08;85469.59;;;14.70;45.95
40948;BME280;49382;-25.924;28.194;2023-05-23T05:04:33;85472.04;;;14.94;45.23
40948;BME280;49382;-25.924;28.194;2023-05-23T05:06:58;85472.31;;;15.75;44.20
40948;BME280;49382;-25.924;28.194;2023-05-23T05:09:24;85467.14;;;15.31;44.84
40948;BME280;49382;-25.924;28.194;2023-05-23T05:11:49;85473.83;;;15.43;44.47
40948;BME280;49382;-25.924;28.194;2023-05-23T05:14:14;85474.87;;;14.99;45.48
40948;BME280;49382;-25.924;28.194;2023-05-23T05:16:39;85476.38;;;14.64;46.42
40948;BME280;49382;-25.924;28.194;2023-05-23T05:19:05;85474.65;;;14.69;46.26
40948;BME280;49382;-25.924;28.194;2023-05-23T05:21:30;85475.13;;;14.63;46.24
40948;BME280;49382;-25.924;28.194;2023-05-23T05:23:56;85482.59;;;15.70;44.93
40948;BME280;49382;-25.924;28.194;2023-05-23T05:26:21;85480.05;;;14.82;45.80
40948;BME280;49382;-25.924;28.194;2023-05-23T05:28:46;85479.09;;;15.20;45.62
40948;BME280;49382;-25.924;28.194;2023-05-23T05:31:11;85481.74;;;14.91;45.97
40948;BME280;49382;-25.924;28.194;2023-05-23T05:33:37;85483.08;;;15.22;44.78
40948;BME280;49382;-25.924;28.194;2023-05-23T05:36:02;85490.77;;;15.06;44.88
40948;BME280;49382;-25.924;28.194;2023-05-23T05:38:27;85493.07;;;16.11;43.55
40948;BME280;49382;-25.924;28.194;2023-05-23T05:40:53;85498.41;;;14.93;46.85
40948;BME280;49382;-25.924;28.194;2023-05-23T05:43:18;85502.19;;;15.01;45.82
40948;BME280;49382;-25.924;28.194;2023-05-23T05:45:43;85510.71;;;14.27;46.35
40948;BME280;49382;-25.924;28.194;2023-05-23T05:48:09;85505.98;;;15.00;46.27
40948;BME280;49382;-25.924;28.194;2023-05-23T05:50:34;85500.83;;;15.36;46.00
40948;BME280;49382;-25.924;28.194;2023-05-23T05:52:59;85495.80;;;14.22;46.65
40948;BME280;49382;-25.924;28.194;2023-05-23T05:55:25;85493.57;;;14.79;46.32
40948;BME280;49382;-25.924;28.194;2023-05-23T05:57:50;85495.56;;;15.59;44.65
40948;BME280;49382;-25.924;28.194;2023-05-23T06:00:16;85501.33;;;14.39;46.97
40948;BME280;49382;-25.924;28.194;2023-05-23T06:02:42;85505.21;;;14.09;47.73
40948;BME280;49382;-25.924;28.194;2023-05-23T06:05:07;85503.18;;;14.58;47.07
40948;BME280;49382;-25.924;28.194;2023-05-23T06:07:31;85511.20;;;14.52;46.86
40948;BME280;49382;-25.924;28.194;2023-05-23T06:09:56;85511.30;;;14.19;47.57
40948;BME280;49382;-25.924;28.194;2023-05-23T06:12:22;85512.66;;;14.94;46.62
40948;BME280;49382;-25.924;28.194;2023-05-23T06:14:47;85510.84;;;15.41;45.51
40948;BME280;49382;-25.924;28.194;2023-05-23T06:17:13;85509.27;;;15.82;44.27
40948;BME280;49382;-25.924;28.194;2023-05-23T06:19:38;85512.97;;;16.06;43.12
40948;BME280;49382;-25.924;28.194;2023-05-23T06:22:04;85513.55;;;15.00;44.77
40948;BME280;49382;-25.924;28.194;2023-05-23T06:24:29;85517.13;;;14.15;47.05
40948;BME280;49382;-25.924;28.194;2023-05-23T06:26:54;85513.18;;;14.26;47.27
40948;BME280;49382;-25.924;28.194;2023-05-23T06:29:19;85517.15;;;14.46;46.51
40948;BME280;49382;-25.924;28.194;2023-05-23T06:31:44;85515.92;;;14.68;46.78
40948;BME280;49382;-25.924;28.194;2023-05-23T06:34:10;85519.38;;;15.49;44.70
40948;BME280;49382;-25.924;28.194;2023-05-23T06:36:35;85524.14;;;15.54;45.11
40948;BME280;49382;-25.924;28.194;2023-05-23T06:39:01;85521.94;;;15.35;45.17
40948;BME280;49382;-25.924;28.194;2023-05-23T06:41:26;85522.03;;;14.61;45.80
40948;BME280;49382;-25.924;28.194;2023-05-23T06:43:51;85522.80;;;14.90;45.21
40948;BME280;49382;-25.924;28.194;2023-05-23T06:46:17;85525.12;;;15.32;44.72
40948;BME280;49382;-25.924;28.194;2023-05-23T06:48:42;85533.67;;;14.32;46.36
40948;BME280;49382;-25.924;28.194;2023-05-23T06:51:07;85532.64;;;14.95;45.12
40948;BME280;49382;-25.924;28.194;2023-05-23T06:53:33;85540.28;;;15.38;44.73
40948;BME280;49382;-25.924;28.194;2023-05-23T06:55:58;85542.54;;;14.99;45.90
40948;BME280;49382;-25.924;28.194;2023-05-23T06:58:23;85545.90;;;14.81;46.43
40948;BME280;49382;-25.924;28.194;2023-05-23T07:00:49;85543.68;;;14.55;46.60
40948;BME280;49382;-25.924;28.194;2023-05-23T07:03:14;85541.63;;;14.39;46.65
40948;BME280;49382;-25.924;28.194;2023-05-23T07:05:40;85541.29;;;13.77;47.64
40948;BME280;49382;-25.924;28.194;2023-05-23T07:08:05;85541.16;;;14.73;46.20
40948;BME280;49382;-25.924;28.194;2023-05-23T07:10:30;85543.44;;;13.77;47.92
40948;BME280;49382;-25.924;28.194;2023-05-23T07:12:55;85548.82;;;13.78;48.21
40948;BME280;49382;-25.924;28.194;2023-05-23T07:15:20;85552.11;;;13.71;48.53
40948;BME280;49382;-25.924;28.194;2023-05-23T07:17:46;85554.62;;;14.18;47.44
40948;BME280;49382;-25.924;28.194;2023-05-23T07:20:11;85556.44;;;14.12;47.49
40948;BME280;49382;-25.924;28.194;2023-05-23T07:22:37;85556.29;;;14.46;46.85
40948;BME280;49382;-25.924;28.194;2023-05-23T07:25:02;85551.83;;;15.35;45.35
40948;BME280;49382;-25.924;28.194;2023-05-23T07:27:27;85558.38;;;14.89;46.13
40948;BME280;49382;-25.924;28.194;2023-05-23T07:29:52;85558.84;;;14.30;47.42
40948;BME280;49382;-25.924;28.194;2023-05-23T07:32:18;85560.19;;;15.73;44.46
40948;BME280;49382;-25.924;28.194;2023-05-23T07:34:42;85554.94;;;15.27;45.70
40948;BME280;49382;-25.924;28.194;2023-05-23T07:37:08;85556.68;;;14.67;46.87
40948;BME280;49382;-25.924;28.194;2023-05-23T07:39:33;85556.36;;;15.76;44.45
40948;BME280;49382;-25.924;28.194;2023-05-23T07:41:59;85560.30;;;14.61;46.64
40948;BME280;49382;-25.924;28.194;2023-05-23T07:44:24;85559.82;;;16.01;44.90
40948;BME280;49382;-25.924;28.194;2023-05-23T07:46:49;85564.45;;;16.17;44.01
40948;BME280;49382;-25.924;28.194;2023-05-23T07:49:15;85565.33;;;15.49;44.12
40948;BME280;49382;-25.924;28.194;2023-05-23T07:51:40;85559.56;;;15.33;44.81
40948;BME280;49382;-25.924;28.194;2023-05-23T07:54:05;85557.94;;;16.19;42.81
40948;BME280;49382;-25.924;28.194;2023-05-23T07:56:31;85559.01;;;16.08;43.63
40948;BME280;49382;-25.924;28.194;2023-05-23T07:58:56;85558.40;;;15.80;43.57
40948;BME280;49382;-25.924;28.194;2023-05-23T08:01:21;85559.06;;;15.23;43.55
40948;BME280;49382;-25.924;28.194;2023-05-23T08:03:47;85559.38;;;15.54;43.69
40948;BME280;49382;-25.924;28.194;2023-05-23T08:06:12;85558.38;;;15.61;43.41
40948;BME280;49382;-25.924;28.194;2023-05-23T08:08:38;85560.60;;;16.08;43.44
40948;BME280;49382;-25.924;28.194;2023-05-23T08:11:04;85559.14;;;15.75;43.76
40948;BME280;49382;-25.924;28.194;2023-05-23T08:13:30;85556.33;;;15.55;44.29
40948;BME280;49382;-25.924;28.194;2023-05-23T08:15:54;85553.95;;;15.99;43.48
40948;BME280;49382;-25.924;28.194;2023-05-23T08:18:20;85554.85;;;16.19;42.13
40948;BME280;49382;-25.924;28.194;2023-05-23T08:20:45;85557.78;;;16.26;41.91
40948;BME280;49382;-25.924;28.194;2023-05-23T08:23:11;85555.54;;;16.14;42.23
40948;BME280;49382;-25.924;28.194;2023-05-23T08:25:37;85558.65;;;15.94;42.41
40948;BME280;49382;-25.924;28.194;2023-05-23T08:28:02;85554.55;;;15.38;43.97
40948;BME280;49382;-25.924;28.194;2023-05-23T08:30:28;85553.47;;;15.49;43.29
40948;BME280;49382;-25.924;28.194;2023-05-23T08:32:53;85556.72;;;16.69;42.37
40948;BME280;49382;-25.924;28.194;2023-05-23T08:35:18;85558.24;;;18.45;39.73
40948;BME280;49382;-25.924;28.194;2023-05-23T08:37:43;85550.86;;;17.62;39.47
40948;BME280;49382;-25.924;28.194;2023-05-23T08:40:16;85548.17;;;14.74;43.48
40948;BME280;49382;-25.924;28.194;2023-05-23T08:42:34;85547.49;;;15.42;43.02
40948;BME280;49382;-25.924;28.194;2023-05-23T08:45:00;85554.65;;;16.87;41.50
40948;BME280;49382;-25.924;28.194;2023-05-23T08:47:26;85552.90;;;16.73;41.38
40948;BME280;49382;-25.924;28.194;2023-05-23T08:49:54;85550.85;;;16.59;40.48
40948;BME280;49382;-25.924;28.194;2023-05-23T08:52:18;85554.01;;;16.34;41.15
40948;BME280;49382;-25.924;28.194;2023-05-23T08:54:42;85557.40;;;16.94;39.79
40948;BME280;49382;-25.924;28.194;2023-05-23T08:57:07;85558.95;;;15.75;39.60
40948;BME280;49382;-25.924;28.194;2023-05-23T08:59:33;85561.08;;;17.55;38.46
40948;BME280;49382;-25.924;28.194;2023-05-23T09:01:59;85555.37;;;17.17;39.31
40948;BME280;49382;-25.924;28.194;2023-05-23T09:04:23;85549.05;;;15.97;42.36
40948;BME280;49382;-25.924;28.194;2023-05-23T09:06:49;85549.68;;;17.28;40.23
40948;BME280;49382;-25.924;28.194;2023-05-23T09:09:14;85542.06;;;17.87;38.94
40948;BME280;49382;-25.924;28.194;2023-05-23T09:11:41;85542.43;;;17.14;39.24
40948;BME280;49382;-25.924;28.194;2023-05-23T09:14:04;85536.36;;;17.74;39.01
40948;BME280;49382;-25.924;28.194;2023-05-23T09:16:33;85532.54;;;17.33;39.61
40948;BME280;49382;-25.924;28.194;2023-05-23T09:18:55;85524.70;;;18.14;38.45
40948;BME280;49382;-25.924;28.194;2023-05-23T09:21:20;85510.25;;;17.28;38.79
40948;BME280;49382;-25.924;28.194;2023-05-23T09:23:46;85506.53;;;17.47;38.60
40948;BME280;49382;-25.924;28.194;2023-05-23T09:26:11;85516.05;;;18.41;37.92
40948;BME280;49382;-25.924;28.194;2023-05-23T09:28:38;85509.04;;;18.36;37.74
40948;BME280;49382;-25.924;28.194;2023-05-23T09:31:03;85506.54;;;18.34;36.95
40948;BME280;49382;-25.924;28.194;2023-05-23T09:33:37;85501.97;;;19.52;35.47
40948;BME280;49382;-25.924;28.194;2023-05-23T09:35:52;85499.07;;;17.45;38.26
40948;BME280;49382;-25.924;28.194;2023-05-23T09:38:18;85493.40;;;18.34;36.86
40948;BME280;49382;-25.924;28.194;2023-05-23T09:40:45;85494.29;;;19.05;36.55
40948;BME280;49382;-25.924;28.194;2023-05-23T09:43:07;85490.56;;;18.82;37.03
40948;BME280;49382;-25.924;28.194;2023-05-23T09:45:33;85492.71;;;19.76;35.77
40948;BME280;49382;-25.924;28.194;2023-05-23T09:47:58;85495.51;;;19.39;35.57
40948;BME280;49382;-25.924;28.194;2023-05-23T09:50:25;85489.58;;;19.28;35.78
40948;BME280;49382;-25.924;28.194;2023-05-23T09:52:48;85482.48;;;19.36;35.45
40948;BME280;49382;-25.924;28.194;2023-05-23T09:55:14;85474.98;;;19.85;35.08
40948;BME280;49382;-25.924;28.194;2023-05-23T09:57:41;85477.31;;;18.68;36.02
40948;BME280;49382;-25.924;28.194;2023-05-23T10:00:05;85471.80;;;19.03;35.73
40948;BME280;49382;-25.924;28.194;2023-05-23T10:04:55;85453.59;;;19.50;35.78
40948;BME280;49382;-25.924;28.194;2023-05-23T10:07:22;85457.28;;;19.07;35.02
40948;BME280;49382;-25.924;28.194;2023-05-23T10:09:49;85449.34;;;19.49;36.25
40948;BME280;49382;-25.924;28.194;2023-05-23T10:14:39;85437.31;;;20.09;34.41
40948;BME280;49382;-25.924;28.194;2023-05-23T10:17:05;85429.87;;;19.39;35.78
40948;BME280;49382;-25.924;28.194;2023-05-23T10:19:30;85425.99;;;20.05;35.50
40948;BME280;49382;-25.924;28.194;2023-05-23T10:21:55;85416.21;;;19.65;34.70
40948;BME280;49382;-25.924;28.194;2023-05-23T10:24:16;85410.58;;;18.54;36.16
40948;BME280;49382;-25.924;28.194;2023-05-23T10:26:41;85401.04;;;18.40;37.11
40948;BME280;49382;-25.924;28.194;2023-05-23T10:29:06;85387.42;;;19.16;36.10
40948;BME280;49382;-25.924;28.194;2023-05-23T10:31:31;85389.66;;;18.75;36.51
40948;BME280;49382;-25.924;28.194;2023-05-23T10:34:03;85383.91;;;18.34;36.80
40948;BME280;49382;-25.924;28.194;2023-05-23T10:36:27;85386.78;;;17.93;37.25
40948;BME280;49382;-25.924;28.194;2023-05-23T10:38:52;85383.79;;;18.01;37.20
40948;BME280;49382;-25.924;28.194;2023-05-23T10:41:15;85371.97;;;19.47;35.90
40948;BME280;49382;-25.924;28.194;2023-05-23T10:43:43;85364.80;;;19.01;36.36
40948;BME280;49382;-25.924;28.194;2023-05-23T10:46:02;85357.80;;;19.81;35.42
40948;BME280;49382;-25.924;28.194;2023-05-23T10:48:33;85351.13;;;19.11;35.61
40948;BME280;49382;-25.924;28.194;2023-05-23T10:53:18;85300.00;;;18.97;37.41
40948;BME280;49382;-25.924;28.194;2023-05-23T10:55:48;85280.89;;;18.70;36.51
40948;BME280;49382;-25.924;28.194;2023-05-23T10:58:11;85276.89;;;19.55;36.10
40948;BME280;49382;-25.924;28.194;2023-05-23T11:00:34;85267.10;;;19.61;35.87
40948;BME280;49382;-25.924;28.194;2023-05-23T11:03:00;85277.53;;;18.54;37.38
40948;BME280;49382;-25.924;28.194;2023-05-23T11:05:26;85275.56;;;18.96;36.50
40948;BME280;49382;-25.924;28.194;2023-05-23T11:10:14;85264.50;;;18.25;37.54
40948;BME280;49382;-25.924;28.194;2023-05-23T11:12:41;85271.31;;;17.65;39.36
40948;BME280;49382;-25.924;28.194;2023-05-23T11:17:32;85263.84;;;17.78;38.61
40948;BME280;49382;-25.924;28.194;2023-05-23T11:19:58;85261.17;;;18.28;37.41
40948;BME280;49382;-25.924;28.194;2023-05-23T11:22:20;85261.94;;;18.87;36.52
40948;BME280;49382;-25.924;28.194;2023-05-23T11:24:49;85269.37;;;18.89;36.34
40948;BME280;49382;-25.924;28.194;2023-05-23T11:27:11;85275.19;;;19.16;36.29
40948;BME280;49382;-25.924;28.194;2023-05-23T11:29:34;85271.15;;;19.41;35.46
40948;BME280;49382;-25.924;28.194;2023-05-23T11:32:00;85271.17;;;20.16;35.56
40948;BME280;49382;-25.924;28.194;2023-05-23T11:34:26;85277.03;;;19.40;36.19
40948;BME280;49382;-25.924;28.194;2023-05-23T11:36:54;85284.87;;;19.67;35.28
40948;BME280;49382;-25.924;28.194;2023-05-23T11:39:15;85289.98;;;19.71;35.04
40948;BME280;49382;-25.924;28.194;2023-05-23T11:41:41;85282.60;;;20.27;34.42
40948;BME280;49382;-25.924;28.194;2023-05-23T11:44:11;85272.51;;;20.22;34.94
40948;BME280;49382;-25.924;28.194;2023-05-23T11:46:31;85271.24;;;20.00;34.47
40948;BME280;49382;-25.924;28.194;2023-05-23T11:48:56;85268.41;;;19.08;35.10
40948;BME280;49382;-25.924;28.194;2023-05-23T11:51:21;85264.50;;;18.89;36.27
40948;BME280;49382;-25.924;28.194;2023-05-23T11:53:47;85260.29;;;18.43;35.64
40948;BME280;49382;-25.924;28.194;2023-05-23T11:56:13;85248.37;;;20.23;33.56
40948;BME280;49382;-25.924;28.194;2023-05-23T11:58:38;85242.02;;;18.65;35.26
40948;BME280;49382;-25.924;28.194;2023-05-23T12:01:03;85239.56;;;20.06;33.47
40948;BME280;49382;-25.924;28.194;2023-05-23T12:03:26;85239.47;;;19.98;33.86
40948;BME280;49382;-25.924;28.194;2023-05-23T12:05:51;85239.67;;;19.42;34.04
40948;BME280;49382;-25.924;28.194;2023-05-23T12:08:17;85244.43;;;19.81;34.10
40948;BME280;49382;-25.924;28.194;2023-05-23T12:10:50;85250.86;;;19.02;34.70
40948;BME280;49382;-25.924;28.194;2023-05-23T12:13:07;85252.01;;;19.25;34.09
40948;BME280;49382;-25.924;28.194;2023-05-23T12:15:32;85250.98;;;19.57;33.51
40948;BME280;49382;-25.924;28.194;2023-05-23T12:17:57;85249.59;;;18.70;35.17
40948;BME280;49382;-25.924;28.194;2023-05-23T12:20:25;85251.24;;;18.55;35.62
40948;BME280;49382;-25.924;28.194;2023-05-23T12:22:48;85247.80;;;19.84;34.52
40948;BME280;49382;-25.924;28.194;2023-05-23T12:25:12;85244.25;;;19.19;34.83
40948;BME280;49382;-25.924;28.194;2023-05-23T12:27:40;85243.20;;;20.17;33.87
40948;BME280;49382;-25.924;28.194;2023-05-23T12:30:07;85240.24;;;18.99;34.57
40948;BME280;49382;-25.924;28.194;2023-05-23T12:32:27;85240.99;;;19.24;34.84
40948;BME280;49382;-25.924;28.194;2023-05-23T12:34:53;85240.30;;;18.99;35.33
40948;BME280;49382;-25.924;28.194;2023-05-23T12:37:17;85236.48;;;18.72;35.03
40948;BME280;49382;-25.924;28.194;2023-05-23T12:39:43;85224.89;;;19.07;35.11
40948;BME280;49382;-25.924;28.194;2023-05-23T12:42:08;85226.09;;;19.49;34.52
40948;BME280;49382;-25.924;28.194;2023-05-23T12:44:33;85229.13;;;19.12;35.42
40948;BME280;49382;-25.924;28.194;2023-05-23T12:46:57;85233.09;;;19.73;34.30